Time;durP1;ratioP1;P1;durP2;ratioP2;P2;SDS_P1;SDS_P2;PMS_P1;PMS_P2;Temp;Humidity;BMP_temperature;BMP_pressure;BME280_temperature;BME280_humidity;BME280_pressure;Samples;Min_cycle;Max_cycle;Signal;HPM_P1;HPM_P2
2023/10/23 00:00:09;;;;;;;;;;;;;;;10.16;100.00;101297.00;5029354;28;30196;-78
2023/10/23 00:02:38;;;;;;;;;;;;;;;10.09;100.00;101297.34;5023758;28;19928;-75
2023/10/23 00:05:04;;;;;;;;;;;;;;;10.02;100.00;101301.25;5031099;28;19963;-76
2023/10/23 00:07:30;;;;;;;;;;;;;;;10.08;100.00;101295.59;5028351;28;19951;-76
2023/10/23 00:09:55;;;;;;;;;;;;;;;9.99;100.00;101301.44;5035400;28;19916;-77
2023/10/23 00:12:20;;;;;;;;;;;;;;;9.83;100.00;101290.72;5034730;28;20036;-77
2023/10/23 00:14:45;;;;;;;;;;;;;;;9.84;100.00;101286.28;5032723;28;25558;-75
2023/10/23 00:17:11;;;;;;;;;;;;;;;9.70;100.00;101278.16;5034378;28;19931;-76
2023/10/23 00:19:36;;;;;;;;;;;;;;;9.67;100.00;101275.66;5026560;28;19916;-77
2023/10/23 00:22:01;;;;;;;;;;;;;;;9.75;100.00;101292.09;5029501;28;20692;-75
2023/10/23 00:24:27;;;;;;;;;;;;;;;9.68;100.00;101298.66;5027095;28;19924;-78
2023/10/23 00:26:52;;;;;;;;;;;;;;;9.59;100.00;101279.59;5024474;28;37813;-76
2023/10/23 00:29:18;;;;;;;;;;;;;;;9.53;100.00;101273.69;5034605;28;19990;-77
2023/10/23 00:31:43;;;;;;;;;;;;;;;9.47;100.00;101264.22;5030593;28;19924;-76
2023/10/23 00:34:08;;;;;;;;;;;;;;;9.43;100.00;101270.66;5023763;28;31534;-76
2023/10/23 00:36:33;;;;;;;;;;;;;;;9.34;100.00;101268.50;5021774;28;19927;-76
2023/10/23 00:38:59;;;;;;;;;;;;;;;9.33;100.00;101266.75;5024493;28;19917;-76
2023/10/23 00:41:24;;;;;;;;;;;;;;;9.25;100.00;101259.16;5035647;28;19927;-76
2023/10/23 00:43:49;;;;;;;;;;;;;;;9.28;100.00;101269.63;5034507;28;19939;-77
2023/10/23 00:46:16;;;;;;;;;;;;;;;9.31;100.00;101274.81;5031953;28;19924;-76
2023/10/23 00:48:41;;;;;;;;;;;;;;;9.31;100.00;101281.94;5030844;28;19920;-77
2023/10/23 00:51:09;;;;;;;;;;;;;;;9.33;100.00;101280.91;5029850;28;19925;-75
2023/10/23 00:53:37;;;;;;;;;;;;;;;9.32;100.00;101281.84;5029577;28;20007;-76
2023/10/23 00:56:04;;;;;;;;;;;;;;;9.22;100.00;101279.75;5029382;28;19921;-77
2023/10/23 00:58:31;;;;;;;;;;;;;;;9.20;100.00;101273.66;5035566;28;19955;-77
2023/10/23 01:00:57;;;;;;;;;;;;;;;9.22;100.00;101279.75;5018430;28;19956;-74
2023/10/23 01:03:23;;;;;;;;;;;;;;;9.27;100.00;101273.25;5043100;28;20030;-77
2023/10/23 01:05:48;;;;;;;;;;;;;;;9.27;100.00;101280.38;5036536;28;20807;-75
2023/10/23 01:08:14;;;;;;;;;;;;;;;9.23;100.00;101276.13;5032796;28;19927;-76
2023/10/23 01:10:39;;;;;;;;;;;;;;;9.18;100.00;101272.84;5029517;28;19921;-76
2023/10/23 01:13:08;;;;;;;;;;;;;;;9.05;100.00;101277.94;5034975;28;19916;-75
2023/10/23 01:15:33;;;;;;;;;;;;;;;9.03;100.00;101267.34;5034047;28;20102;-76
2023/10/23 01:17:59;;;;;;;;;;;;;;;9.01;100.00;101260.41;5042755;28;19929;-75
2023/10/23 01:20:26;;;;;;;;;;;;;;;8.91;100.00;101267.97;5022830;28;19928;-76
2023/10/23 01:22:54;;;;;;;;;;;;;;;8.93;100.00;101262.56;5019652;28;19968;-77
2023/10/23 01:25:19;;;;;;;;;;;;;;;8.96;100.00;101265.09;5020559;28;19917;-75
2023/10/23 01:27:45;;;;;;;;;;;;;;;8.95;100.00;101269.56;5029287;28;19917;-77
2023/10/23 01:30:10;;;;;;;;;;;;;;;8.86;100.00;101277.13;5028460;28;19921;-76
2023/10/23 01:32:35;;;;;;;;;;;;;;;8.87;100.00;101276.19;5030839;28;19948;-76
2023/10/23 01:35:01;;;;;;;;;;;;;;;8.92;100.00;101276.81;5027591;28;19922;-76
2023/10/23 01:37:26;;;;;;;;;;;;;;;8.92;100.00;101277.66;5025547;28;20008;-77
2023/10/23 01:39:52;;;;;;;;;;;;;;;9.00;100.00;101282.63;5033509;28;19932;-75
2023/10/23 01:42:18;;;;;;;;;;;;;;;9.09;100.00;101287.50;5033817;28;19964;-76
2023/10/23 01:44:43;;;;;;;;;;;;;;;9.19;100.00;101285.22;5034043;28;19921;-76
2023/10/23 01:47:08;;;;;;;;;;;;;;;9.24;100.00;101289.38;5034587;28;19917;-76
2023/10/23 01:49:34;;;;;;;;;;;;;;;9.29;100.00;101294.47;5043112;28;19979;-75
2023/10/23 01:51:59;;;;;;;;;;;;;;;9.38;100.00;101301.97;5033619;28;20469;-76
2023/10/23 01:54:25;;;;;;;;;;;;;;;9.48;100.00;101297.88;5033924;28;19916;-78
2023/10/23 01:56:50;;;;;;;;;;;;;;;9.58;100.00;101300.94;5035593;28;20475;-76
2023/10/23 01:59:15;;;;;;;;;;;;;;;9.62;100.00;101297.19;5033446;28;20013;-77
2023/10/23 02:01:41;;;;;;;;;;;;;;;9.69;100.00;101293.28;5036214;28;19937;-76
2023/10/23 02:04:07;;;;;;;;;;;;;;;9.71;100.00;101293.19;5038519;28;19920;-76
2023/10/23 02:06:32;;;;;;;;;;;;;;;9.72;100.00;101286.91;5036790;28;20923;-76
2023/10/23 02:08:59;;;;;;;;;;;;;;;9.72;100.00;101289.56;5036994;28;19921;-77
2023/10/23 02:11:24;;;;;;;;;;;;;;;9.74;100.00;101283.25;5034102;28;20016;-76
2023/10/23 02:13:49;;;;;;;;;;;;;;;9.83;100.00;101292.53;5032388;28;19947;-76
2023/10/23 02:16:14;;;;;;;;;;;;;;;9.88;100.00;101290.47;5028942;28;19928;-77
2023/10/23 02:18:40;;;;;;;;;;;;;;;9.85;100.00;101298.66;5041473;28;20004;-76
2023/10/23 02:21:05;;;;;;;;;;;;;;;9.83;100.00;101295.19;5043081;28;19974;-76
2023/10/23 02:23:31;;;;;;;;;;;;;;;9.78;100.00;101298.09;5035770;28;19917;-75
2023/10/23 02:25:57;;;;;;;;;;;;;;;9.74;100.00;101291.22;5033658;28;20006;-77
2023/10/23 02:28:22;;;;;;;;;;;;;;;9.76;100.00;101301.78;5032875;28;19921;-76
2023/10/23 02:30:48;;;;;;;;;;;;;;;9.91;100.00;101300.97;5040415;28;19924;-75
2023/10/23 02:33:13;;;;;;;;;;;;;;;9.98;100.00;101305.03;5028119;28;19916;-76
2023/10/23 02:35:38;;;;;;;;;;;;;;;9.89;100.00;101294.88;5024976;28;19921;-76
2023/10/23 02:38:04;;;;;;;;;;;;;;;9.71;100.00;101303.84;5031703;28;19929;-76
2023/10/23 02:40:29;;;;;;;;;;;;;;;9.95;100.00;101312.34;5024677;28;19928;-75
2023/10/23 02:42:54;;;;;;;;;;;;;;;10.03;100.00;101310.97;5027295;28;19918;-75
2023/10/23 02:45:20;;;;;;;;;;;;;;;10.05;100.00;101308.25;5032106;28;19918;-76
2023/10/23 02:47:45;;;;;;;;;;;;;;;10.10;100.00;101301.72;5029652;28;26173;-76
2023/10/23 02:50:10;;;;;;;;;;;;;;;10.13;100.00;101301.53;5039039;28;19921;-76
2023/10/23 02:52:36;;;;;;;;;;;;;;;10.19;100.00;101300.38;5032743;28;19917;-77
2023/10/23 02:55:01;;;;;;;;;;;;;;;10.24;100.00;101305.47;5029198;28;20039;-76
2023/10/23 02:57:26;;;;;;;;;;;;;;;10.16;100.00;101302.34;5029494;28;19924;-75
2023/10/23 02:59:52;;;;;;;;;;;;;;;10.11;100.00;101314.09;5030830;28;19916;-77
2023/10/23 03:02:18;;;;;;;;;;;;;;;10.09;100.00;101310.66;5030214;28;27632;-76
2023/10/23 03:04:43;;;;;;;;;;;;;;;10.06;100.00;101317.97;5029280;28;19916;-76
2023/10/23 03:07:10;;;;;;;;;;;;;;;9.98;100.00;101309.50;5029504;28;19956;-76
2023/10/23 03:09:36;;;;;;;;;;;;;;;9.74;100.00;101322.31;5027740;28;19936;-76
2023/10/23 03:12:02;;;;;;;;;;;;;;;9.86;100.00;101335.00;5031023;28;19924;-77
2023/10/23 03:14:27;;;;;;;;;;;;;;;10.01;100.00;101344.00;5036163;28;20596;-77
2023/10/23 03:16:52;;;;;;;;;;;;;;;10.09;100.00;101333.75;5033497;28;30836;-77
2023/10/23 03:19:19;;;;;;;;;;;;;;;10.18;100.00;101343.06;5017659;28;19921;-75
2023/10/23 03:21:44;;;;;;;;;;;;;;;10.16;100.00;101339.66;5028758;28;19917;-77
2023/10/23 03:24:10;;;;;;;;;;;;;;;10.19;100.00;101336.78;5023886;28;20782;-76
2023/10/23 03:26:35;;;;;;;;;;;;;;;10.24;100.00;101340.09;5020755;28;19925;-77
2023/10/23 03:29:00;;;;;;;;;;;;;;;10.26;100.00;101339.09;5037767;28;28548;-77
2023/10/23 03:31:26;;;;;;;;;;;;;;;10.34;100.00;101339.56;5031921;28;19917;-75
2023/10/23 03:33:51;;;;;;;;;;;;;;;10.33;100.00;101335.13;5024886;28;19921;-76
2023/10/23 03:36:17;;;;;;;;;;;;;;;10.35;100.00;101330.59;5030301;28;19925;-75
2023/10/23 03:38:44;;;;;;;;;;;;;;;10.37;100.00;101331.38;5013836;28;20010;-75
2023/10/23 03:41:09;;;;;;;;;;;;;;;10.40;100.00;101335.69;5030148;28;19916;-76
2023/10/23 03:43:34;;;;;;;;;;;;;;;10.49;100.00;101329.84;5031105;28;19928;-77
2023/10/23 03:46:03;;;;;;;;;;;;;;;10.50;100.00;101330.72;5026764;28;25135;-77
2023/10/23 03:48:28;;;;;;;;;;;;;;;10.59;100.00;101333.72;5028178;28;19990;-77
2023/10/23 03:50:53;;;;;;;;;;;;;;;10.60;100.00;101340.78;5027725;28;19920;-77
2023/10/23 03:53:19;;;;;;;;;;;;;;;10.60;100.00;101330.13;5034056;28;20015;-76
2023/10/23 03:55:44;;;;;;;;;;;;;;;10.60;100.00;101332.78;5038639;28;20371;-77
2023/10/23 03:58:09;;;;;;;;;;;;;;;10.61;100.00;101341.63;5023463;28;19944;-76
2023/10/23 04:00:35;;;;;;;;;;;;;;;10.54;100.00;101340.25;5028916;28;20027;-76
2023/10/23 04:03:00;;;;;;;;;;;;;;;10.53;100.00;101342.03;5024948;28;19918;-77
2023/10/23 04:05:25;;;;;;;;;;;;;;;10.61;100.00;101347.81;5028941;28;19942;-76
2023/10/23 04:07:51;;;;;;;;;;;;;;;10.55;100.00;101345.50;5022795;28;19959;-78
2023/10/23 04:10:16;;;;;;;;;;;;;;;10.50;100.00;101344.03;5031862;28;19916;-77
2023/10/23 04:12:41;;;;;;;;;;;;;;;10.52;100.00;101356.34;5032640;28;19925;-75
2023/10/23 04:15:07;;;;;;;;;;;;;;;10.51;100.00;101361.75;5038519;28;19925;-77
2023/10/23 04:17:32;;;;;;;;;;;;;;;10.56;100.00;101355.22;5032143;28;20029;-75
2023/10/23 04:19:58;;;;;;;;;;;;;;;10.59;100.00;101362.19;5030319;28;19924;-75
2023/10/23 04:22:23;;;;;;;;;;;;;;;10.61;100.00;101369.16;5031074;28;20118;-77
2023/10/23 04:24:48;;;;;;;;;;;;;;;10.53;100.00;101355.38;5027632;28;20016;-77
2023/10/23 04:27:14;;;;;;;;;;;;;;;10.45;100.00;101364.75;5030755;28;19932;-75
2023/10/23 04:29:39;;;;;;;;;;;;;;;10.43;100.00;101359.50;5024465;28;19918;-77
2023/10/23 04:32:04;;;;;;;;;;;;;;;10.49;100.00;101348.53;5037813;28;19952;-77
2023/10/23 04:34:30;;;;;;;;;;;;;;;10.51;100.00;101348.44;5037603;28;20023;-77
2023/10/23 04:36:55;;;;;;;;;;;;;;;10.53;100.00;101357.19;5028287;28;41806;-77
2023/10/23 04:39:20;;;;;;;;;;;;;;;10.59;100.00;101360.41;5029388;28;20031;-78
2023/10/23 04:41:45;;;;;;;;;;;;;;;10.58;100.00;101353.31;5030165;28;19916;-77
2023/10/23 04:44:11;;;;;;;;;;;;;;;10.55;100.00;101349.97;5026116;28;39918;-75
2023/10/23 04:46:36;;;;;;;;;;;;;;;10.54;100.00;101356.25;5022879;28;34507;-77
2023/10/23 04:49:01;;;;;;;;;;;;;;;10.53;100.00;101360.72;5025715;28;19927;-77
2023/10/23 04:51:26;;;;;;;;;;;;;;;10.40;100.00;101358.81;5024123;28;32915;-76
2023/10/23 04:53:52;;;;;;;;;;;;;;;10.36;100.00;101360.78;5024496;28;19928;-77
2023/10/23 04:56:17;;;;;;;;;;;;;;;10.33;100.00;101358.28;5033373;28;29630;-76
2023/10/23 04:58:43;;;;;;;;;;;;;;;10.16;100.00;101358.31;5021193;28;37531;-77
2023/10/23 05:01:15;;;;;;;;;;;;;;;10.18;100.00;101372.38;5028210;28;20020;-76
2023/10/23 05:03:40;;;;;;;;;;;;;;;10.25;100.00;101380.03;5028780;28;20021;-77
2023/10/23 05:06:06;;;;;;;;;;;;;;;10.37;100.00;101378.50;5026993;28;33992;-77
2023/10/23 05:08:31;;;;;;;;;;;;;;;10.37;100.00;101381.16;5031139;28;20035;-75
2023/10/23 05:11:04;;;;;;;;;;;;;;;10.37;100.00;101381.16;5027302;28;34835;-77
2023/10/23 05:13:29;;;;;;;;;;;;;;;10.34;100.00;101373.31;5025733;28;19925;-76
2023/10/23 05:16:01;;;;;;;;;;;;;;;10.26;100.00;101381.75;5014787;28;19921;-76
2023/10/23 05:18:26;;;;;;;;;;;;;;;10.27;100.00;101378.13;5034455;28;19921;-77
2023/10/23 05:20:51;;;;;;;;;;;;;;;10.28;100.00;101378.97;5037126;28;19925;-77
2023/10/23 05:23:17;;;;;;;;;;;;;;;10.37;100.00;101379.34;5024103;28;19929;-77
2023/10/23 05:25:46;;;;;;;;;;;;;;;10.36;100.00;101376.78;5025907;28;20028;-77
2023/10/23 05:28:11;;;;;;;;;;;;;;;10.30;100.00;101377.97;5030749;28;19970;-75
2023/10/23 05:30:37;;;;;;;;;;;;;;;10.32;100.00;101372.56;5026215;28;25228;-77
2023/10/23 05:33:03;;;;;;;;;;;;;;;10.24;100.00;101377.41;5018637;28;19969;-77
2023/10/23 05:35:28;;;;;;;;;;;;;;;9.92;100.00;101376.44;5029917;28;19920;-76
2023/10/23 05:37:54;;;;;;;;;;;;;;;9.98;100.00;101379.63;5023551;28;20000;-76
2023/10/23 05:40:19;;;;;;;;;;;;;;;9.85;100.00;101386.56;5029247;28;19971;-77
2023/10/23 05:42:44;;;;;;;;;;;;;;;9.86;100.00;101389.13;5021946;28;19921;-75
2023/10/23 05:45:10;;;;;;;;;;;;;;;9.72;100.00;101388.97;5027493;28;19924;-77
2023/10/23 05:47:35;;;;;;;;;;;;;;;9.64;100.00;101400.94;5022622;28;20006;-75
2023/10/23 05:50:00;;;;;;;;;;;;;;;9.54;100.00;101393.44;5032773;28;19983;-76
2023/10/23 05:52:25;;;;;;;;;;;;;;;9.42;100.00;101411.81;5027259;28;38540;-77
2023/10/23 05:54:51;;;;;;;;;;;;;;;9.44;100.00;101421.47;5029053;28;19921;-77
2023/10/23 05:57:16;;;;;;;;;;;;;;;9.35;100.00;101416.59;5028986;28;29277;-76
2023/10/23 05:59:41;;;;;;;;;;;;;;;9.41;100.00;101426.06;5031083;28;19921;-75
2023/10/23 06:02:06;;;;;;;;;;;;;;;9.39;100.00;101425.25;5032482;28;20008;-77
2023/10/23 06:04:32;;;;;;;;;;;;;;;9.29;100.00;101420.41;5029887;28;34636;-76
2023/10/23 06:06:57;;;;;;;;;;;;;;;9.32;100.00;101425.56;5028838;28;31528;-76
2023/10/23 06:09:23;;;;;;;;;;;;;;;9.24;100.00;101432.22;5022761;28;19921;-77
2023/10/23 06:11:48;;;;;;;;;;;;;;;9.39;100.00;101434.13;5033781;28;20051;-77
2023/10/23 06:14:13;;;;;;;;;;;;;;;9.42;100.00;101431.31;5035166;28;31927;-75
2023/10/23 06:16:38;;;;;;;;;;;;;;;9.53;100.00;101431.63;5027484;28;19976;-77
2023/10/23 06:19:05;;;;;;;;;;;;;;;9.52;100.00;101429.91;5026011;28;37875;-76
2023/10/23 06:21:31;;;;;;;;;;;;;;;9.30;100.00;101424.78;5025267;28;19924;-76
2023/10/23 06:23:56;;;;;;;;;;;;;;;9.31;100.00;101437.16;5025273;28;19932;-77
2023/10/23 06:26:21;;;;;;;;;;;;;;;9.40;100.00;101440.31;5028037;28;19947;-77
2023/10/23 06:28:47;;;;;;;;;;;;;;;9.39;100.00;101442.13;5032273;28;33469;-76
2023/10/23 06:31:12;;;;;;;;;;;;;;;9.52;100.00;101431.72;5029031;28;33219;-77
2023/10/23 06:33:42;;;;;;;;;;;;;;;9.41;100.00;101434.06;5034586;28;19991;-77
2023/10/23 06:36:09;;;;;;;;;;;;;;;9.50;100.00;101441.59;5033732;28;19967;-75
2023/10/23 06:38:34;;;;;;;;;;;;;;;9.67;100.00;101436.28;5035023;28;19917;-76
2023/10/23 06:41:04;;;;;;;;;;;;;;;9.81;100.00;101435.59;5029349;28;19921;-76
2023/10/23 06:43:30;;;;;;;;;;;;;;;9.72;100.00;101418.25;5023077;28;19929;-77
2023/10/23 06:45:55;;;;;;;;;;;;;;;9.68;100.00;101418.50;5024694;28;19920;-77
2023/10/23 06:48:20;;;;;;;;;;;;;;;9.79;100.00;101417.03;5028967;28;19955;-77
2023/10/23 06:50:49;;;;;;;;;;;;;;;9.97;100.00;101415.22;5034199;28;19931;-78
2023/10/23 06:53:14;;;;;;;;;;;;;;;9.97;100.00;101417.00;5029446;28;19971;-76
2023/10/23 06:55:47;;;;;;;;;;;;;;;10.03;100.00;101419.34;5035394;28;20314;-77
2023/10/23 06:58:12;;;;;;;;;;;;;;;9.66;100.00;101423.06;5033749;28;19917;-76
2023/10/23 07:00:37;;;;;;;;;;;;;;;9.70;100.00;101427.28;5031546;28;19931;-77
2023/10/23 07:03:03;;;;;;;;;;;;;;;9.50;100.00;101426.47;5037634;28;20763;-75
2023/10/23 07:05:29;;;;;;;;;;;;;;;9.76;100.00;101435.81;5026896;28;19917;-76
2023/10/23 07:07:54;;;;;;;;;;;;;;;9.84;100.00;101441.63;5025911;28;33640;-77
2023/10/23 07:10:19;;;;;;;;;;;;;;;9.76;100.00;101441.16;5027440;28;31570;-76
2023/10/23 07:12:45;;;;;;;;;;;;;;;9.89;100.00;101438.75;5029416;28;20056;-76
2023/10/23 07:15:10;;;;;;;;;;;;;;;10.07;100.00;101443.09;5031665;28;19917;-77
2023/10/23 07:17:35;;;;;;;;;;;;;;;9.98;100.00;101438.25;5027935;28;19976;-77
2023/10/23 07:20:01;;;;;;;;;;;;;;;10.00;100.00;101447.03;5031622;28;29457;-77
2023/10/23 07:22:26;;;;;;;;;;;;;;;10.02;100.00;101434.47;5031516;28;19927;-77
2023/10/23 07:24:53;;;;;;;;;;;;;;;9.85;100.00;101426.50;5035972;28;19921;-76
2023/10/23 07:27:19;;;;;;;;;;;;;;;10.02;100.00;101436.28;5028381;28;20967;-75
2023/10/23 07:29:44;;;;;;;;;;;;;;;10.07;100.00;101440.44;5025765;28;19936;-76
2023/10/23 07:32:09;;;;;;;;;;;;;;;10.28;100.00;101435.81;5025714;28;19921;-76
2023/10/23 07:34:35;;;;;;;;;;;;;;;10.12;100.00;101430.41;5024725;28;19920;-76
2023/10/23 07:37:00;;;;;;;;;;;;;;;9.95;100.00;101433.09;5033307;28;20208;-76
2023/10/23 07:39:26;;;;;;;;;;;;;;;10.18;100.00;101434.53;5022032;28;19964;-78
2023/10/23 07:41:51;;;;;;;;;;;;;;;10.27;100.00;101441.25;5034879;28;19926;-75
2023/10/23 07:44:16;;;;;;;;;;;;;;;10.38;100.00;101431.72;5023091;28;34583;-76
2023/10/23 07:46:43;;;;;;;;;;;;;;;10.35;100.00;101436.38;5030561;28;20071;-75
2023/10/23 07:49:09;;;;;;;;;;;;;;;10.44;100.00;101427.91;5034944;28;19932;-76
2023/10/23 07:51:34;;;;;;;;;;;;;;;10.60;100.00;101430.59;5035876;28;19924;-77
2023/10/23 07:53:59;;;;;;;;;;;;;;;10.56;100.00;101421.88;5028318;28;20356;-77
2023/10/23 07:56:25;;;;;;;;;;;;;;;10.45;100.00;101416.28;5028340;28;20024;-76
2023/10/23 07:58:52;;;;;;;;;;;;;;;10.67;100.00;101413.31;5026996;28;19921;-77
2023/10/23 08:01:18;;;;;;;;;;;;;;;10.56;100.00;101421.88;5028591;28;19917;-77
2023/10/23 08:03:43;;;;;;;;;;;;;;;10.45;100.00;101413.63;5026319;28;19917;-76
2023/10/23 08:06:09;;;;;;;;;;;;;;;10.43;100.00;101425.28;5027620;28;31887;-76
2023/10/23 08:08:35;;;;;;;;;;;;;;;10.68;100.00;101438.16;5027398;28;19921;-77
2023/10/23 08:11:04;;;;;;;;;;;;;;;10.81;100.00;101432.09;5031802;28;19971;-75
2023/10/23 08:13:30;;;;;;;;;;;;;;;10.68;100.00;101415.03;5022544;28;20813;-77
2023/10/23 08:15:55;;;;;;;;;;;;;;;10.75;100.00;101405.75;5030333;28;19925;-77
2023/10/23 08:18:20;;;;;;;;;;;;;;;10.34;100.00;101413.31;5030772;28;19955;-77
2023/10/23 08:20:46;;;;;;;;;;;;;;;10.65;100.00;101406.34;5027233;28;35217;-76
2023/10/23 08:23:11;;;;;;;;;;;;;;;10.78;100.00;101400.22;5031491;28;20047;-75
2023/10/23 08:25:36;;;;;;;;;;;;;;;11.01;100.00;101393.63;5024763;28;35485;-77
2023/10/23 08:28:02;;;;;;;;;;;;;;;10.77;100.00;101384.31;5036968;28;19975;-75
2023/10/23 08:30:28;;;;;;;;;;;;;;;11.08;100.00;101392.31;5024585;28;19917;-75
2023/10/23 08:32:53;;;;;;;;;;;;;;;10.75;100.00;101381.75;5022486;28;19924;-75
2023/10/23 08:35:19;;;;;;;;;;;;;;;10.73;100.00;101385.44;5026362;28;20840;-75
2023/10/23 08:37:44;;;;;;;;;;;;;;;10.90;100.00;101385.38;5035607;28;19971;-76
2023/10/23 08:40:10;;;;;;;;;;;;;;;11.12;100.00;101377.84;5030938;28;19991;-76
2023/10/23 08:42:35;;;;;;;;;;;;;;;11.20;100.00;101380.09;5030694;28;19924;-75
2023/10/23 08:45:02;;;;;;;;;;;;;;;11.21;100.00;101375.63;5028576;28;19924;-77
2023/10/23 08:47:27;;;;;;;;;;;;;;;11.25;100.00;101375.34;5039398;28;19921;-75
2023/10/23 08:49:54;;;;;;;;;;;;;;;10.95;100.00;101367.28;5029246;28;19917;-76
2023/10/23 08:52:23;;;;;;;;;;;;;;;11.32;100.00;101366.03;5026440;28;19943;-75
2023/10/23 08:54:51;;;;;;;;;;;;;;;11.77;100.00;101360.75;5026082;28;19921;-76
2023/10/23 08:57:17;;;;;;;;;;;;;;;11.72;100.00;101344.97;5029848;28;19929;-76
2023/10/23 08:59:43;;;;;;;;;;;;;;;11.78;100.00;101349.94;5030356;28;19917;-75
2023/10/23 09:02:08;;;;;;;;;;;;;;;11.51;100.00;101341.78;5027440;28;19928;-77
2023/10/23 09:04:34;;;;;;;;;;;;;;;11.63;100.00;101353.53;5031841;28;20026;-76
2023/10/23 09:07:00;;;;;;;;;;;;;;;11.39;100.00;101345.16;5031371;28;19999;-76
2023/10/23 09:09:26;;;;;;;;;;;;;;;11.46;100.00;101346.53;5023606;28;19917;-77
2023/10/23 09:11:51;;;;;;;;;;;;;;;11.64;100.00;101349.91;5030489;28;19932;-76
2023/10/23 09:14:23;;;;;;;;;;;;;;;11.74;100.00;101351.09;5033178;28;19917;-75
2023/10/23 09:16:49;;;;;;;;;;;;;;;11.33;100.00;101349.06;5030455;28;19972;-76
2023/10/23 09:19:25;;;;;;;;;;;;;;;11.47;100.00;101358.09;5030116;28;19916;-75
2023/10/23 09:21:56;;;;;;;;;;;;;;;11.64;100.00;101365.94;5032787;28;19924;-75
2023/10/23 09:24:23;;;;;;;;;;;;;;;11.67;100.00;101363.09;5031465;28;19924;-76
2023/10/23 09:26:51;;;;;;;;;;;;;;;12.04;100.00;101351.06;5022978;28;19925;-75
2023/10/23 09:29:20;;;;;;;;;;;;;;;12.37;100.00;101340.09;5029785;28;19924;-75
2023/10/23 09:31:45;;;;;;;;;;;;;;;12.58;100.00;101331.66;5029469;28;19964;-75
2023/10/23 09:34:12;;;;;;;;;;;;;;;12.64;100.00;101325.91;5024720;28;19923;-75
2023/10/23 09:36:37;;;;;;;;;;;;;;;12.44;100.00;101322.69;5021242;28;19929;-77
2023/10/23 09:39:02;;;;;;;;;;;;;;;12.69;100.00;101321.13;5018675;28;19917;-77
2023/10/23 09:41:28;;;;;;;;;;;;;;;12.71;100.00;101329.94;5025910;28;19917;-76
2023/10/23 09:43:55;;;;;;;;;;;;;;;12.62;100.00;101326.03;5022612;28;19921;-75
2023/10/23 09:46:20;;;;;;;;;;;;;;;12.56;100.00;101326.44;5031592;28;19964;-75
2023/10/23 09:48:46;;;;;;;;;;;;;;;12.79;100.00;101324.06;5028315;28;19924;-76
2023/10/23 09:51:12;;;;;;;;;;;;;;;12.90;100.00;101326.91;5028255;28;19925;-76
2023/10/23 09:53:39;;;;;;;;;;;;;;;12.84;100.00;101325.50;5030492;28;20719;-75
2023/10/23 09:56:05;;;;;;;;;;;;;;;12.69;100.00;101321.13;5032229;28;19975;-75
2023/10/23 09:58:32;;;;;;;;;;;;;;;13.15;100.00;101324.34;5029510;28;20966;-75
2023/10/23 10:00:59;;;;;;;;;;;;;;;13.03;100.00;101310.91;5033393;28;19928;-76
2023/10/23 10:03:25;;;;;;;;;;;;;;;12.70;100.00;101321.06;5031363;28;19924;-76
2023/10/23 10:05:53;;;;;;;;;;;;;;;12.92;100.00;101317.84;5033298;28;19926;-76
2023/10/23 10:08:21;;;;;;;;;;;;;;;13.23;100.00;101315.81;5031945;28;19944;-75
2023/10/23 10:10:47;;;;;;;;;;;;;;;13.32;100.00;101303.66;5032900;28;19916;-75
2023/10/23 10:13:14;;;;;;;;;;;;;;;13.13;100.00;101312.88;5030684;28;19940;-74
2023/10/23 10:15:39;;;;;;;;;;;;;;;13.28;100.00;101299.44;5024768;28;20035;-76
2023/10/23 10:18:05;;;;;;;;;;;;;;;13.02;100.00;101302.03;5024061;28;19921;-75
2023/10/23 10:20:30;;;;;;;;;;;;;;;13.48;100.00;101291.78;5026609;28;21206;-74
2023/10/23 10:23:01;;;;;;;;;;;;;;;13.60;100.00;101287.38;5035763;28;19917;-74
2023/10/23 10:25:27;;;;;;;;;;;;;;;13.67;100.00;101283.34;5066389;28;19921;-75
2023/10/23 10:27:56;;;;;;;;;;;;;;;13.50;100.00;101296.16;5023729;28;20023;-75
2023/10/23 10:30:40;;;;;;;;;;;;;;;13.66;100.00;101286.97;5030315;28;19932;-75
2023/10/23 10:33:18;;;;;;;;;;;;;;;13.60;100.00;101283.84;5030420;28;19939;-74
2023/10/23 10:35:47;;;;;;;;;;;;;;;14.04;100.00;101283.44;5028415;28;19971;-76
2023/10/23 10:38:12;;;;;;;;;;;;;;;14.11;100.00;101274.00;5030416;28;19917;-75
2023/10/23 10:40:58;;;;;;;;;;;;;;;13.89;100.00;101285.38;5030002;28;19995;-74
2023/10/23 10:43:32;;;;;;;;;;;;;;;13.82;100.00;101278.72;5028283;28;19917;-76
2023/10/23 10:45:59;;;;;;;;;;;;;;;13.84;100.00;101263.38;5032914;28;19929;-75
2023/10/23 10:48:25;;;;;;;;;;;;;;;14.09;100.00;101254.47;5030290;28;20154;-76
2023/10/23 10:50:51;;;;;;;;;;;;;;;14.28;100.00;101245.09;5029871;28;19928;-75
2023/10/23 10:53:17;;;;;;;;;;;;;;;14.22;100.00;101243.72;5027558;28;19964;-76
2023/10/23 10:55:43;;;;;;;;;;;;;;;14.27;100.00;101235.34;5029151;28;19958;-75
2023/10/23 10:58:09;;;;;;;;;;;;;;;14.20;100.00;101232.22;5033859;28;19990;-75
2023/10/23 11:00:35;;;;;;;;;;;;;;;14.40;100.00;101231.63;5027081;28;19928;-74
2023/10/23 11:03:01;;;;;;;;;;;;;;;14.62;100.00;101214.00;5035607;28;19917;-75
2023/10/23 11:05:26;;;;;;;;;;;;;;;14.56;100.00;101212.63;5027663;28;20035;-75
2023/10/23 11:07:51;;;;;;;;;;;;;;;14.28;100.00;101221.81;5030974;28;19934;-74
2023/10/23 11:10:17;;;;;;;;;;;;;;;14.54;100.00;101206.50;5024693;28;19972;-74
2023/10/23 11:12:42;;;;;;;;;;;;;;;14.36;100.00;101202.47;5027463;28;19921;-75
2023/10/23 11:15:08;;;;;;;;;;;;;;;14.27;100.00;101189.75;5029076;28;19921;-76
2023/10/23 11:17:33;;;;;;;;;;;;;;;14.43;100.00;101190.31;5023823;28;19921;-76
2023/10/23 11:19:59;;;;;;;;;;;;;;;13.98;100.00;101196.25;5026929;28;19916;-75
2023/10/23 11:22:25;;;;;;;;;;;;;;;14.25;100.00;101201.41;5029963;28;20167;-75
2023/10/23 11:24:51;;;;;;;;;;;;;;;14.53;100.00;101195.91;5033776;28;19932;-75
2023/10/23 11:27:17;;;;;;;;;;;;;;;14.64;100.00;101186.06;5028704;28;19977;-75
2023/10/23 11:29:44;;;;;;;;;;;;;;;14.00;100.00;101180.88;5019052;28;19924;-74
2023/10/23 11:32:13;;;;;;;;;;;;;;;14.19;100.00;101184.91;5032113;28;19959;-75
2023/10/23 11:34:38;;;;;;;;;;;;;;;14.27;100.00;101170.97;5027044;28;19959;-74
2023/10/23 11:37:04;;;;;;;;;;;;;;;14.71;100.00;101167.69;5026814;28;19983;-75
2023/10/23 11:39:29;;;;;;;;;;;;;;;14.37;100.00;101161.25;5025702;28;20699;-75
2023/10/23 11:41:56;;;;;;;;;;;;;;;14.60;100.00;101157.72;5027331;28;19921;-76
2023/10/23 11:44:25;;;;;;;;;;;;;;;14.40;100.00;101156.50;5025733;28;19921;-75
2023/10/23 11:46:52;;;;;;;;;;;;;;;14.68;100.00;101147.28;5031830;28;19921;-77
2023/10/23 11:49:18;;;;;;;;;;;;;;;14.86;100.00;101144.16;5032414;28;19924;-75
2023/10/23 11:51:43;;;;;;;;;;;;;;;15.04;100.00;101132.00;5021435;28;20790;-75
2023/10/23 11:54:08;;;;;;;;;;;;;;;15.12;100.00;101134.97;5026860;28;20019;-75
2023/10/23 11:56:35;;;;;;;;;;;;;;;15.01;100.00;101127.75;5033693;28;20465;-75
2023/10/23 11:59:00;;;;;;;;;;;;;;;14.75;100.00;101118.97;5025826;28;19917;-75
2023/10/23 12:01:25;;;;;;;;;;;;;;;14.92;100.00;101117.72;5019188;28;20007;-75
2023/10/23 12:03:50;;;;;;;;;;;;;;;15.08;100.00;101109.31;5027177;28;19987;-76
2023/10/23 12:06:16;;;;;;;;;;;;;;;15.24;100.00;101115.19;5027735;28;20007;-75
2023/10/23 12:08:41;;;;;;;;;;;;;;;15.19;100.00;101108.47;5028582;28;20735;-76
2023/10/23 12:11:07;;;;;;;;;;;;;;;15.12;100.00;101112.63;5030983;28;20020;-76
2023/10/23 12:13:32;;;;;;;;;;;;;;;14.99;100.00;101100.13;5028450;28;19921;-75
2023/10/23 12:15:57;;;;;;;;;;;;;;;15.40;100.00;101095.16;5032152;28;19987;-75
2023/10/23 12:18:26;;;;;;;;;;;;;;;15.13;100.00;101090.16;5029138;28;19917;-76
2023/10/23 12:20:51;;;;;;;;;;;;;;;15.20;100.00;101088.69;5021347;28;19960;-75
2023/10/23 12:23:16;;;;;;;;;;;;;;;15.22;100.00;101084.06;5025563;28;19921;-75